createdAt,value
2024-01-09T00:01:48.665Z,350.63
2024-01-09T00:17:13.716Z,349.75
2024-01-09T00:32:38.688Z,349.56
2024-01-09T00:48:03.893Z,349.40
2024-01-09T01:03:28.581Z,349.11
2024-01-09T01:18:53.566Z,348.47
2024-01-09T01:34:18.641Z,347.15
2024-01-09T01:49:44.621Z,346.81
2024-01-09T02:05:09.667Z,346.32
2024-01-09T02:20:34.566Z,346.39
2024-01-09T02:35:59.589Z,346.12
2024-01-09T02:51:24.567Z,346.08
2024-01-09T03:06:49.707Z,346.83
2024-01-09T03:22:14.538Z,346.67
2024-01-09T03:37:39.456Z,346.36
2024-01-09T03:53:04.486Z,345.86
2024-01-09T04:08:29.591Z,346.02
2024-01-09T04:23:54.467Z,345.58
2024-01-09T04:39:19.458Z,345.95
2024-01-09T04:54:44.464Z,344.68
2024-01-09T05:10:09.512Z,344.75
2024-01-09T05:25:34.407Z,344.24
2024-01-09T05:40:59.393Z,343.62
2024-01-09T05:56:24.487Z,343.42
2024-01-09T06:11:49.406Z,342.84
2024-01-09T06:27:14.417Z,341.92
2024-01-09T06:42:39.369Z,341.11
2024-01-09T06:58:04.379Z,339.90
2024-01-09T07:13:29.402Z,339.78
2024-01-09T07:28:54.330Z,338.72
2024-01-09T07:44:19.394Z,338.61
2024-01-09T07:59:44.356Z,338.12
2024-01-09T08:15:09.362Z,337.52
2024-01-09T08:30:34.342Z,336.28
2024-01-09T08:45:59.363Z,336.00
2024-01-09T09:01:24.501Z,335.67
2024-01-09T09:16:49.246Z,334.65
2024-01-09T09:32:14.363Z,333.91
2024-01-09T09:47:39.312Z,334.04
2024-01-09T10:03:04.276Z,334.29
2024-01-09T10:18:29.507Z,335.12
2024-01-09T10:33:54.302Z,334.79
2024-01-09T10:49:22.700Z,335.64
2024-01-09T11:04:45.259Z,336.54
2024-01-09T11:20:11.194Z,337.95
2024-01-09T11:35:36.197Z,337.96
2024-01-09T11:51:01.266Z,337.46
2024-01-09T12:06:27.404Z,338.39
2024-01-09T12:21:52.217Z,339.20
2024-01-09T12:37:18.190Z,339.57
2024-01-09T12:52:43.176Z,338.99
2024-01-09T13:08:09.095Z,338.22
2024-01-09T13:39:01.107Z,335.58
2024-01-09T13:54:27.377Z,334.25
2024-01-09T14:09:52.164Z,333.46
2024-01-09T14:25:17.128Z,333.70
2024-01-09T14:40:42.099Z,333.17
2024-01-09T14:56:07.165Z,332.65
2024-01-09T15:11:32.134Z,331.93
2024-01-09T15:26:57.093Z,331.82
2024-01-09T15:42:23.057Z,331.66
2024-01-09T15:57:48.018Z,330.53
2024-01-09T16:13:13.010Z,329.90
2024-01-09T16:28:38.348Z,328.53
2024-01-09T16:44:03.066Z,327.14
2024-01-09T16:59:28.061Z,327.30
2024-01-09T17:14:52.996Z,327.45
2024-01-09T17:30:17.961Z,326.99
2024-01-09T17:45:43.015Z,325.94
2024-01-09T18:01:07.997Z,325.23
2024-01-09T18:16:33.973Z,325.79
2024-01-09T18:31:59.116Z,324.84
2024-01-09T18:47:24.110Z,324.71
2024-01-09T19:02:48.990Z,324.05
2024-01-09T19:18:13.997Z,323.52
2024-01-09T19:33:39.065Z,324.30
2024-01-09T19:49:04.039Z,324.86
2024-01-09T20:04:28.996Z,324.87
2024-01-09T20:19:54.292Z,324.81
2024-01-09T20:35:18.918Z,324.64
2024-01-09T20:50:43.957Z,324.25
2024-01-09T21:06:08.955Z,323.41
2024-01-09T21:21:33.944Z,322.85
2024-01-09T21:36:58.881Z,321.97
2024-01-09T21:52:23.911Z,322.09
2024-01-09T22:07:48.932Z,322.03
2024-01-09T22:23:13.930Z,321.65
2024-01-09T22:38:38.825Z,322.40
2024-01-09T22:54:03.776Z,323.11
2024-01-09T23:09:29.975Z,323.37
2024-01-09T23:24:54.823Z,324.83
2024-01-09T23:40:19.772Z,325.27
2024-01-09T23:55:44.917Z,326.31
